sensor_id;sensor_type;location;lat;lon;timestamp;temperature;humidity
480;DHT22;226;48.606;9.096;2022-08-21T00:00:29;14.50;60.80
480;DHT22;226;48.606;9.096;2022-08-21T00:03:03;14.50;60.70
480;DHT22;226;48.606;9.096;2022-08-21T00:05:35;14.50;62.50
480;DHT22;226;48.606;9.096;2022-08-21T00:08:04;14.50;62.50
480;DHT22;226;48.606;9.096;2022-08-21T00:10:33;14.50;61.30
480;DHT22;226;48.606;9.096;2022-08-21T00:13:01;14.50;60.70
480;DHT22;226;48.606;9.096;2022-08-21T00:15:32;14.40;58.80
480;DHT22;226;48.606;9.096;2022-08-21T00:18:02;14.40;60.60
480;DHT22;226;48.606;9.096;2022-08-21T00:20:31;14.40;61.20
480;DHT22;226;48.606;9.096;2022-08-21T00:22:59;14.40;61.50
480;DHT22;226;48.606;9.096;2022-08-21T00:25:27;14.40;61.80
480;DHT22;226;48.606;9.096;2022-08-21T00:27:55;14.40;61.30
480;DHT22;226;48.606;9.096;2022-08-21T00:30:25;14.40;60.40
480;DHT22;226;48.606;9.096;2022-08-21T00:32:55;14.40;61.50
480;DHT22;226;48.606;9.096;2022-08-21T00:35:28;14.40;62.80
480;DHT22;226;48.606;9.096;2022-08-21T00:37:57;14.40;61.30
480;DHT22;226;48.606;9.096;2022-08-21T00:40:28;14.40;59.80
480;DHT22;226;48.606;9.096;2022-08-21T00:42:56;14.40;61.00
480;DHT22;226;48.606;9.096;2022-08-21T00:45:25;14.40;61.80
480;DHT22;226;48.606;9.096;2022-08-21T00:47:54;14.40;60.70
480;DHT22;226;48.606;9.096;2022-08-21T00:50:29;14.40;61.00
480;DHT22;226;48.606;9.096;2022-08-21T00:52:59;14.40;61.20
480;DHT22;226;48.606;9.096;2022-08-21T00:55:28;14.40;60.60
480;DHT22;226;48.606;9.096;2022-08-21T00:57:59;14.40;58.80
480;DHT22;226;48.606;9.096;2022-08-21T01:00:35;14.30;60.00
480;DHT22;226;48.606;9.096;2022-08-21T01:03:07;14.30;60.00
480;DHT22;226;48.606;9.096;2022-08-21T01:05:38;14.20;60.60
480;DHT22;226;48.606;9.096;2022-08-21T01:08:07;14.20;60.70
480;DHT22;226;48.606;9.096;2022-08-21T01:10:37;14.20;59.40
480;DHT22;226;48.606;9.096;2022-08-21T01:13:07;14.20;60.60
480;DHT22;226;48.606;9.096;2022-08-21T01:15:40;14.20;61.00
480;DHT22;226;48.606;9.096;2022-08-21T01:18:11;14.10;59.90
480;DHT22;226;48.606;9.096;2022-08-21T01:20:43;14.10;60.70
480;DHT22;226;48.606;9.096;2022-08-21T01:23:13;14.10;60.10
480;DHT22;226;48.606;9.096;2022-08-21T01:25:41;14.00;60.50
480;DHT22;226;48.606;9.096;2022-08-21T01:28:13;14.00;60.40
480;DHT22;226;48.606;9.096;2022-08-21T01:30:43;14.00;61.10
480;DHT22;226;48.606;9.096;2022-08-21T01:33:11;13.90;61.30
480;DHT22;226;48.606;9.096;2022-08-21T01:35:39;13.90;61.50
480;DHT22;226;48.606;9.096;2022-08-21T01:38:07;13.90;59.70
480;DHT22;226;48.606;9.096;2022-08-21T01:40:37;13.90;58.80
480;DHT22;226;48.606;9.096;2022-08-21T01:43:05;13.90;59.10
480;DHT22;226;48.606;9.096;2022-08-21T01:45:33;13.80;60.80
480;DHT22;226;48.606;9.096;2022-08-21T01:48:01;13.80;61.80
480;DHT22;226;48.606;9.096;2022-08-21T01:50:30;13.70;62.10
480;DHT22;226;48.606;9.096;2022-08-21T01:52:58;13.70;63.10
480;DHT22;226;48.606;9.096;2022-08-21T01:55:26;13.70;62.20
480;DHT22;226;48.606;9.096;2022-08-21T01:57:57;13.70;62.10
480;DHT22;226;48.606;9.096;2022-08-21T02:00:26;13.70;62.50
480;DHT22;226;48.606;9.096;2022-08-21T02:02:54;13.70;62.80
480;DHT22;226;48.606;9.096;2022-08-21T02:05:22;13.70;62.90
480;DHT22;226;48.606;9.096;2022-08-21T02:07:52;13.70;62.10
480;DHT22;226;48.606;9.096;2022-08-21T02:10:23;13.60;62.60
480;DHT22;226;48.606;9.096;2022-08-21T02:12:53;13.60;62.30
480;DHT22;226;48.606;9.096;2022-08-21T02:15:23;13.50;63.30
480;DHT22;226;48.606;9.096;2022-08-21T02:17:53;13.60;63.70
480;DHT22;226;48.606;9.096;2022-08-21T02:20:24;13.50;63.60
480;DHT22;226;48.606;9.096;2022-08-21T02:22:53;13.40;64.20
480;DHT22;226;48.606;9.096;2022-08-21T02:25:23;13.50;65.00
480;DHT22;226;48.606;9.096;2022-08-21T02:27:51;13.50;64.70
480;DHT22;226;48.606;9.096;2022-08-21T02:30:24;13.50;66.70
480;DHT22;226;48.606;9.096;2022-08-21T02:32:53;13.50;66.10
480;DHT22;226;48.606;9.096;2022-08-21T02:35:21;13.40;64.90
480;DHT22;226;48.606;9.096;2022-08-21T02:37:52;13.40;64.60
480;DHT22;226;48.606;9.096;2022-08-21T02:40:22;13.30;65.80
480;DHT22;226;48.606;9.096;2022-08-21T02:42:50;13.30;66.70
480;DHT22;226;48.606;9.096;2022-08-21T02:45:19;13.30;65.60
480;DHT22;226;48.606;9.096;2022-08-21T02:47:49;13.30;63.40
480;DHT22;226;48.606;9.096;2022-08-21T02:50:19;13.30;61.90
480;DHT22;226;48.606;9.096;2022-08-21T02:52:48;13.30;61.80
480;DHT22;226;48.606;9.096;2022-08-21T02:55:21;13.30;61.20
480;DHT22;226;48.606;9.096;2022-08-21T02:57:49;13.20;59.90
480;DHT22;226;48.606;9.096;2022-08-21T03:00:18;13.20;61.20
480;DHT22;226;48.606;9.096;2022-08-21T03:02:48;13.20;62.00
480;DHT22;226;48.606;9.096;2022-08-21T03:05:17;13.10;61.50
480;DHT22;226;48.606;9.096;2022-08-21T03:07:47;13.10;60.40
480;DHT22;226;48.606;9.096;2022-08-21T03:10:15;13.00;61.40
480;DHT22;226;48.606;9.096;2022-08-21T03:12:43;13.00;63.30
480;DHT22;226;48.606;9.096;2022-08-21T03:15:15;13.00;64.40
480;DHT22;226;48.606;9.096;2022-08-21T03:17:44;13.00;64.80
480;DHT22;226;48.606;9.096;2022-08-21T03:20:15;13.00;64.90
480;DHT22;226;48.606;9.096;2022-08-21T03:22:43;13.00;63.80
480;DHT22;226;48.606;9.096;2022-08-21T03:25:19;13.00;61.90
480;DHT22;226;48.606;9.096;2022-08-21T03:28:08;13.00;61.00
480;DHT22;226;48.606;9.096;2022-08-21T03:30:39;12.50;61.40
480;DHT22;226;48.606;9.096;2022-08-21T03:33:07;12.90;63.10
480;DHT22;226;48.606;9.096;2022-08-21T03:35:40;12.90;63.20
480;DHT22;226;48.606;9.096;2022-08-21T03:38:09;12.90;63.70
480;DHT22;226;48.606;9.096;2022-08-21T03:40:39;12.80;63.70
480;DHT22;226;48.606;9.096;2022-08-21T03:43:07;12.80;62.60
480;DHT22;226;48.606;9.096;2022-08-21T03:45:36;12.90;63.70
480;DHT22;226;48.606;9.096;2022-08-21T03:48:05;12.80;63.80
480;DHT22;226;48.606;9.096;2022-08-21T03:50:36;12.80;63.90
480;DHT22;226;48.606;9.096;2022-08-21T03:53:10;12.80;64.10
480;DHT22;226;48.606;9.096;2022-08-21T03:55:44;12.80;64.70
480;DHT22;226;48.606;9.096;2022-08-21T03:58:13;12.70;65.20
480;DHT22;226;48.606;9.096;2022-08-21T04:00:44;12.70;65.60
480;DHT22;226;48.606;9.096;2022-08-21T04:03:12;12.70;65.20
480;DHT22;226;48.606;9.096;2022-08-21T04:05:40;12.70;65.60
480;DHT22;226;48.606;9.096;2022-08-21T04:08:10;12.70;65.30
480;DHT22;226;48.606;9.096;2022-08-21T04:10:39;12.70;64.90
480;DHT22;226;48.606;9.096;2022-08-21T04:13:08;12.70;64.50
480;DHT22;226;48.606;9.096;2022-08-21T04:15:36;12.70;63.00
480;DHT22;226;48.606;9.096;2022-08-21T04:18:04;12.70;62.00
480;DHT22;226;48.606;9.096;2022-08-21T04:20:33;12.70;60.50
480;DHT22;226;48.606;9.096;2022-08-21T04:23:02;12.60;61.70
480;DHT22;226;48.606;9.096;2022-08-21T04:25:32;12.60;63.10
480;DHT22;226;48.606;9.096;2022-08-21T04:28:00;12.60;63.60
480;DHT22;226;48.606;9.096;2022-08-21T04:30:28;12.60;63.80
480;DHT22;226;48.606;9.096;2022-08-21T04:32:57;12.60;64.40
480;DHT22;226;48.606;9.096;2022-08-21T04:35:27;12.60;62.60
480;DHT22;226;48.606;9.096;2022-08-21T04:37:57;12.50;61.00
480;DHT22;226;48.606;9.096;2022-08-21T04:40:26;12.40;62.30
480;DHT22;226;48.606;9.096;2022-08-21T04:43:02;12.30;62.00
480;DHT22;226;48.606;9.096;2022-08-21T04:45:33;12.40;64.30
480;DHT22;226;48.606;9.096;2022-08-21T04:48:04;12.40;66.00
480;DHT22;226;48.606;9.096;2022-08-21T04:50:43;12.40;66.00
480;DHT22;226;48.606;9.096;2022-08-21T04:53:14;12.40;66.00
480;DHT22;226;48.606;9.096;2022-08-21T04:55:44;12.50;65.40
480;DHT22;226;48.606;9.096;2022-08-21T04:58:17;12.50;64.30
480;DHT22;226;48.606;9.096;2022-08-21T05:00:47;12.50;65.20
480;DHT22;226;48.606;9.096;2022-08-21T05:03:16;12.40;66.00
480;DHT22;226;48.606;9.096;2022-08-21T05:05:45;12.40;66.20
480;DHT22;226;48.606;9.096;2022-08-21T05:08:16;12.40;67.90
480;DHT22;226;48.606;9.096;2022-08-21T05:10:45;12.50;66.10
480;DHT22;226;48.606;9.096;2022-08-21T05:13:15;12.60;66.00
480;DHT22;226;48.606;9.096;2022-08-21T05:15:44;12.70;65.80
480;DHT22;226;48.606;9.096;2022-08-21T05:18:12;12.70;64.60
480;DHT22;226;48.606;9.096;2022-08-21T05:20:40;12.80;64.10
480;DHT22;226;48.606;9.096;2022-08-21T05:23:10;12.80;64.00
480;DHT22;226;48.606;9.096;2022-08-21T05:25:39;12.90;63.20
480;DHT22;226;48.606;9.096;2022-08-21T05:28:08;12.90;62.80
480;DHT22;226;48.606;9.096;2022-08-21T05:30:38;13.00;62.30
480;DHT22;226;48.606;9.096;2022-08-21T05:33:07;13.10;63.00
480;DHT22;226;48.606;9.096;2022-08-21T05:35:36;13.10;62.30
480;DHT22;226;48.606;9.096;2022-08-21T05:38:04;13.20;61.60
480;DHT22;226;48.606;9.096;2022-08-21T05:40:42;13.30;61.70
480;DHT22;226;48.606;9.096;2022-08-21T05:43:10;13.40;62.90
480;DHT22;226;48.606;9.096;2022-08-21T05:45:40;13.40;62.90
480;DHT22;226;48.606;9.096;2022-08-21T05:48:12;13.50;62.00
480;DHT22;226;48.606;9.096;2022-08-21T05:50:40;13.60;63.00
480;DHT22;226;48.606;9.096;2022-08-21T05:53:08;13.60;63.00
480;DHT22;226;48.606;9.096;2022-08-21T05:55:38;13.70;62.10
480;DHT22;226;48.606;9.096;2022-08-21T05:58:12;13.80;62.20
480;DHT22;226;48.606;9.096;2022-08-21T06:00:42;13.90;61.30
480;DHT22;226;48.606;9.096;2022-08-21T06:03:11;14.00;61.50
480;DHT22;226;48.606;9.096;2022-08-21T06:05:40;14.10;62.50
480;DHT22;226;48.606;9.096;2022-08-21T06:08:08;14.20;62.00
480;DHT22;226;48.606;9.096;2022-08-21T06:10:36;14.20;61.10
480;DHT22;226;48.606;9.096;2022-08-21T06:13:04;14.30;60.80
480;DHT22;226;48.606;9.096;2022-08-21T06:15:32;14.50;59.20
480;DHT22;226;48.606;9.096;2022-08-21T06:18:02;14.60;58.80
480;DHT22;226;48.606;9.096;2022-08-21T06:20:30;14.70;58.50
480;DHT22;226;48.606;9.096;2022-08-21T06:22:59;14.80;58.40
480;DHT22;226;48.606;9.096;2022-08-21T06:25:28;14.80;58.70
480;DHT22;226;48.606;9.096;2022-08-21T06:28:01;14.80;58.70
480;DHT22;226;48.606;9.096;2022-08-21T06:30:29;14.90;58.90
480;DHT22;226;48.606;9.096;2022-08-21T06:32:57;15.10;57.10
480;DHT22;226;48.606;9.096;2022-08-21T06:35:28;15.30;56.20
480;DHT22;226;48.606;9.096;2022-08-21T06:37:57;15.40;55.60
480;DHT22;226;48.606;9.096;2022-08-21T06:40:26;15.60;55.10
480;DHT22;226;48.606;9.096;2022-08-21T06:42:56;15.60;55.70
480;DHT22;226;48.606;9.096;2022-08-21T06:45:27;15.70;56.20
480;DHT22;226;48.606;9.096;2022-08-21T06:47:58;15.80;55.80
480;DHT22;226;48.606;9.096;2022-08-21T06:50:28;16.00;56.20
480;DHT22;226;48.606;9.096;2022-08-21T06:53:01;16.10;56.20
480;DHT22;226;48.606;9.096;2022-08-21T06:55:30;16.30;55.20
480;DHT22;226;48.606;9.096;2022-08-21T06:57:58;16.40;54.60
480;DHT22;226;48.606;9.096;2022-08-21T07:00:27;16.50;53.60
480;DHT22;226;48.606;9.096;2022-08-21T07:02:55;16.60;53.30
480;DHT22;226;48.606;9.096;2022-08-21T07:05:26;16.80;52.60
480;DHT22;226;48.606;9.096;2022-08-21T07:07:55;17.00;50.10
480;DHT22;226;48.606;9.096;2022-08-21T07:10:23;17.10;48.00
480;DHT22;226;48.606;9.096;2022-08-21T07:12:52;17.20;47.80
480;DHT22;226;48.606;9.096;2022-08-21T07:15:27;17.40;48.20
480;DHT22;226;48.606;9.096;2022-08-21T07:17:56;17.50;48.40
480;DHT22;226;48.606;9.096;2022-08-21T07:20:27;17.60;46.60
480;DHT22;226;48.606;9.096;2022-08-21T07:22:56;17.70;46.30
480;DHT22;226;48.606;9.096;2022-08-21T07:25:25;17.80;44.00
480;DHT22;226;48.606;9.096;2022-08-21T07:27:53;17.90;39.10
480;DHT22;226;48.606;9.096;2022-08-21T07:30:21;18.00;35.20
480;DHT22;226;48.606;9.096;2022-08-21T07:32:50;18.20;34.80
480;DHT22;226;48.606;9.096;2022-08-21T07:35:19;18.40;30.50
480;DHT22;226;48.606;9.096;2022-08-21T07:37:49;18.40;28.40
480;DHT22;226;48.606;9.096;2022-08-21T07:40:18;18.50;25.80
480;DHT22;226;48.606;9.096;2022-08-21T07:42:47;18.50;28.50
480;DHT22;226;48.606;9.096;2022-08-21T07:45:17;18.60;26.10
480;DHT22;226;48.606;9.096;2022-08-21T07:47:46;18.70;26.60
480;DHT22;226;48.606;9.096;2022-08-21T07:50:19;18.80;26.20
480;DHT22;226;48.606;9.096;2022-08-21T07:52:48;18.90;27.10
480;DHT22;226;48.606;9.096;2022-08-21T07:55:18;19.00;26.40
480;DHT22;226;48.606;9.096;2022-08-21T07:57:47;19.00;26.90
480;DHT22;226;48.606;9.096;2022-08-21T08:00:18;19.00;26.80
480;DHT22;226;48.606;9.096;2022-08-21T08:02:49;19.10;26.10
480;DHT22;226;48.606;9.096;2022-08-21T08:05:20;19.20;25.60
480;DHT22;226;48.606;9.096;2022-08-21T08:07:49;19.30;26.00
480;DHT22;226;48.606;9.096;2022-08-21T08:10:18;19.30;25.10
480;DHT22;226;48.606;9.096;2022-08-21T08:12:47;19.30;21.40
480;DHT22;226;48.606;9.096;2022-08-21T08:15:17;19.40;22.90
480;DHT22;226;48.606;9.096;2022-08-21T08:17:46;19.60;20.90
480;DHT22;226;48.606;9.096;2022-08-21T08:20:16;19.70;22.30
480;DHT22;226;48.606;9.096;2022-08-21T08:22:45;19.80;21.50
480;DHT22;226;48.606;9.096;2022-08-21T08:25:37;19.80;20.60
480;DHT22;226;48.606;9.096;2022-08-21T08:28:06;19.80;21.20
480;DHT22;226;48.606;9.096;2022-08-21T08:30:43;19.90;20.30
480;DHT22;226;48.606;9.096;2022-08-21T08:33:12;19.90;20.00
480;DHT22;226;48.606;9.096;2022-08-21T08:35:40;19.90;20.40
480;DHT22;226;48.606;9.096;2022-08-21T08:38:08;20.00;20.50
480;DHT22;226;48.606;9.096;2022-08-21T08:40:43;20.00;20.40
480;DHT22;226;48.606;9.096;2022-08-21T08:43:12;20.20;20.40
480;DHT22;226;48.606;9.096;2022-08-21T08:45:43;20.30;20.20
480;DHT22;226;48.606;9.096;2022-08-21T08:48:14;20.40;19.40
480;DHT22;226;48.606;9.096;2022-08-21T08:50:52;20.40;18.60
480;DHT22;226;48.606;9.096;2022-08-21T08:53:27;20.50;17.70
480;DHT22;226;48.606;9.096;2022-08-21T08:55:58;20.70;17.00
480;DHT22;226;48.606;9.096;2022-08-21T08:58:31;20.80;14.50
480;DHT22;226;48.606;9.096;2022-08-21T09:01:00;20.90;15.70
480;DHT22;226;48.606;9.096;2022-08-21T09:03:29;21.00;11.20
480;DHT22;226;48.606;9.096;2022-08-21T09:06:03;21.10;12.00
480;DHT22;226;48.606;9.096;2022-08-21T09:08:44;21.20;11.70
480;DHT22;226;48.606;9.096;2022-08-21T09:11:25;21.20;9.00
480;DHT22;226;48.606;9.096;2022-08-21T09:14:01;21.30;9.10
480;DHT22;226;48.606;9.096;2022-08-21T09:16:39;21.40;9.00
480;DHT22;226;48.606;9.096;2022-08-21T09:19:14;21.40;7.60
480;DHT22;226;48.606;9.096;2022-08-21T09:21:55;21.40;10.20
480;DHT22;226;48.606;9.096;2022-08-21T09:24:31;21.30;9.60
480;DHT22;226;48.606;9.096;2022-08-21T09:27:06;21.30;10.30
480;DHT22;226;48.606;9.096;2022-08-21T09:29:37;21.30;11.30
480;DHT22;226;48.606;9.096;2022-08-21T09:32:11;21.20;11.70
480;DHT22;226;48.606;9.096;2022-08-21T09:34:56;21.20;12.60
480;DHT22;226;48.606;9.096;2022-08-21T09:37:25;21.20;13.00
480;DHT22;226;48.606;9.096;2022-08-21T09:39:56;21.20;12.60
480;DHT22;226;48.606;9.096;2022-08-21T09:42:28;21.20;12.00
480;DHT22;226;48.606;9.096;2022-08-21T09:45:09;21.10;12.00
480;DHT22;226;48.606;9.096;2022-08-21T09:47:37;21.00;11.80
480;DHT22;226;48.606;9.096;2022-08-21T09:50:11;21.00;11.70
480;DHT22;226;48.606;9.096;2022-08-21T09:52:48;20.90;11.50
480;DHT22;226;48.606;9.096;2022-08-21T09:55:30;21.00;12.30
480;DHT22;226;48.606;9.096;2022-08-21T09:58:19;21.10;13.80
480;DHT22;226;48.606;9.096;2022-08-21T10:00:57;21.10;12.80
480;DHT22;226;48.606;9.096;2022-08-21T10:03:26;21.20;14.10
480;DHT22;226;48.606;9.096;2022-08-21T10:05:57;21.30;12.40
480;DHT22;226;48.606;9.096;2022-08-21T10:08:28;21.50;11.90
480;DHT22;226;48.606;9.096;2022-08-21T10:11:01;21.50;11.80
480;DHT22;226;48.606;9.096;2022-08-21T10:13:42;21.50;11.80
480;DHT22;226;48.606;9.096;2022-08-21T10:16:24;21.60;11.50
480;DHT22;226;48.606;9.096;2022-08-21T10:19:05;21.60;10.90
480;DHT22;226;48.606;9.096;2022-08-21T10:21:42;21.50;11.40
480;DHT22;226;48.606;9.096;2022-08-21T10:24:21;21.60;10.80
480;DHT22;226;48.606;9.096;2022-08-21T10:27:14;21.60;10.50
480;DHT22;226;48.606;9.096;2022-08-21T10:29:51;21.60;11.00
480;DHT22;226;48.606;9.096;2022-08-21T10:32:31;21.60;11.10
480;DHT22;226;48.606;9.096;2022-08-21T10:35:10;21.80;13.00
480;DHT22;226;48.606;9.096;2022-08-21T10:37:49;22.00;12.60
480;DHT22;226;48.606;9.096;2022-08-21T10:40:26;22.00;11.70
480;DHT22;226;48.606;9.096;2022-08-21T10:43:07;22.00;11.80
480;DHT22;226;48.606;9.096;2022-08-21T10:45:52;22.10;11.60
480;DHT22;226;48.606;9.096;2022-08-21T10:48:27;22.40;11.60
480;DHT22;226;48.606;9.096;2022-08-21T10:51:04;22.40;9.90
480;DHT22;226;48.606;9.096;2022-08-21T10:53:42;22.60;9.70
480;DHT22;226;48.606;9.096;2022-08-21T10:56:16;22.70;9.50
480;DHT22;226;48.606;9.096;2022-08-21T10:58:59;22.70;10.70
480;DHT22;226;48.606;9.096;2022-08-21T11:01:33;22.90;9.10
480;DHT22;226;48.606;9.096;2022-08-21T11:04:11;23.00;8.30
480;DHT22;226;48.606;9.096;2022-08-21T11:06:44;23.20;6.90
480;DHT22;226;48.606;9.096;2022-08-21T11:09:18;23.20;8.90
480;DHT22;226;48.606;9.096;2022-08-21T11:11:52;23.40;8.70
480;DHT22;226;48.606;9.096;2022-08-21T11:14:52;23.50;8.20
480;DHT22;226;48.606;9.096;2022-08-21T11:17:31;23.60;9.20
480;DHT22;226;48.606;9.096;2022-08-21T11:20:05;23.60;9.30
480;DHT22;226;48.606;9.096;2022-08-21T11:22:40;23.60;7.90
480;DHT22;226;48.606;9.096;2022-08-21T11:25:14;23.70;8.40
480;DHT22;226;48.606;9.096;2022-08-21T11:27:46;23.60;6.60
480;DHT22;226;48.606;9.096;2022-08-21T11:30:16;23.60;7.20
480;DHT22;226;48.606;9.096;2022-08-21T11:33:02;23.60;7.00
480;DHT22;226;48.606;9.096;2022-08-21T11:35:36;23.70;6.40
480;DHT22;226;48.606;9.096;2022-08-21T11:38:30;23.70;6.60
480;DHT22;226;48.606;9.096;2022-08-21T11:41:17;23.80;6.40
480;DHT22;226;48.606;9.096;2022-08-21T11:43:49;23.70;7.50
480;DHT22;226;48.606;9.096;2022-08-21T11:46:27;23.80;6.80
480;DHT22;226;48.606;9.096;2022-08-21T11:49:30;23.80;8.00
480;DHT22;226;48.606;9.096;2022-08-21T11:52:08;24.00;6.20
480;DHT22;226;48.606;9.096;2022-08-21T11:54:40;24.10;6.90
480;DHT22;226;48.606;9.096;2022-08-21T11:57:17;24.30;6.60
480;DHT22;226;48.606;9.096;2022-08-21T11:59:51;24.40;6.30
480;DHT22;226;48.606;9.096;2022-08-21T12:02:23;24.60;5.30
480;DHT22;226;48.606;9.096;2022-08-21T12:04:59;24.80;6.50
480;DHT22;226;48.606;9.096;2022-08-21T12:07:38;24.90;5.80
480;DHT22;226;48.606;9.096;2022-08-21T12:10:09;25.00;4.20
480;DHT22;226;48.606;9.096;2022-08-21T12:12:39;25.10;5.30
480;DHT22;226;48.606;9.096;2022-08-21T12:15:27;25.40;3.90
480;DHT22;226;48.606;9.096;2022-08-21T12:18:01;25.50;2.80
480;DHT22;226;48.606;9.096;2022-08-21T12:20:43;25.60;1.80
480;DHT22;226;48.606;9.096;2022-08-21T12:23:28;25.70;1.20
480;DHT22;226;48.606;9.096;2022-08-21T12:26:23;25.70;1.90
480;DHT22;226;48.606;9.096;2022-08-21T12:29:07;25.80;1.20
480;DHT22;226;48.606;9.096;2022-08-21T12:31:53;25.90;1.00
480;DHT22;226;48.606;9.096;2022-08-21T12:34:24;25.90;1.00
480;DHT22;226;48.606;9.096;2022-08-21T12:36:58;26.00;1.00
480;DHT22;226;48.606;9.096;2022-08-21T12:39:29;26.10;1.00
480;DHT22;226;48.606;9.096;2022-08-21T12:42:00;26.10;1.00
480;DHT22;226;48.606;9.096;2022-08-21T12:44:38;26.20;1.00
480;DHT22;226;48.606;9.096;2022-08-21T12:47:15;26.20;1.00
480;DHT22;226;48.606;9.096;2022-08-21T12:49:52;26.30;1.00
480;DHT22;226;48.606;9.096;2022-08-21T12:52:28;26.30;1.00
480;DHT22;226;48.606;9.096;2022-08-21T12:57:31;26.70;1.00
480;DHT22;226;48.606;9.096;2022-08-21T13:00:03;26.90;1.00
480;DHT22;226;48.606;9.096;2022-08-21T13:02:36;27.00;1.00
480;DHT22;226;48.606;9.096;2022-08-21T13:05:08;27.20;1.00
480;DHT22;226;48.606;9.096;2022-08-21T13:07:45;27.50;1.00
480;DHT22;226;48.606;9.096;2022-08-21T13:10:18;27.60;1.00
480;DHT22;226;48.606;9.096;2022-08-21T13:12:47;27.60;1.00
480;DHT22;226;48.606;9.096;2022-08-21T13:15:23;27.70;1.00
480;DHT22;226;48.606;9.096;2022-08-21T13:18:00;27.70;1.00
480;DHT22;226;48.606;9.096;2022-08-21T13:20:33;27.70;1.00
480;DHT22;226;48.606;9.096;2022-08-21T13:23:23;27.70;1.00
480;DHT22;226;48.606;9.096;2022-08-21T13:25:52;27.90;1.00
480;DHT22;226;48.606;9.096;2022-08-21T13:28:20;28.20;1.00
480;DHT22;226;48.606;9.096;2022-08-21T13:30:50;28.50;1.00
480;DHT22;226;48.606;9.096;2022-08-21T13:33:21;28.60;1.00
480;DHT22;226;48.606;9.096;2022-08-21T13:36:06;28.70;1.00
480;DHT22;226;48.606;9.096;2022-08-21T13:38:40;28.70;1.00
480;DHT22;226;48.606;9.096;2022-08-21T13:41:16;28.50;1.00
480;DHT22;226;48.606;9.096;2022-08-21T13:43:49;28.10;1.00
480;DHT22;226;48.606;9.096;2022-08-21T14:26:48;34.90;24.40
480;DHT22;226;48.606;9.096;2022-08-21T14:29:18;35.30;16.70
480;DHT22;226;48.606;9.096;2022-08-21T14:31:50;36.00;6.30
480;DHT22;226;48.606;9.096;2022-08-21T14:34:19;36.60;4.70
480;DHT22;226;48.606;9.096;2022-08-21T14:36:48;36.90;3.10
480;DHT22;226;48.606;9.096;2022-08-21T14:39:18;37.30;2.50
480;DHT22;226;48.606;9.096;2022-08-21T14:41:46;37.50;2.20
480;DHT22;226;48.606;9.096;2022-08-21T14:44:17;37.80;1.00
480;DHT22;226;48.606;9.096;2022-08-21T14:46:46;38.00;1.00
480;DHT22;226;48.606;9.096;2022-08-21T14:49:24;38.50;1.00
480;DHT22;226;48.606;9.096;2022-08-21T14:51:55;38.00;1.00
480;DHT22;226;48.606;9.096;2022-08-21T14:54:27;38.40;1.00
480;DHT22;226;48.606;9.096;2022-08-21T14:56:59;38.50;1.00
480;DHT22;226;48.606;9.096;2022-08-21T14:59:28;38.10;1.00
480;DHT22;226;48.606;9.096;2022-08-21T15:01:57;38.20;1.00
480;DHT22;226;48.606;9.096;2022-08-21T15:04:25;38.60;1.00
480;DHT22;226;48.606;9.096;2022-08-21T15:06:53;38.80;1.00
480;DHT22;226;48.606;9.096;2022-08-21T15:11:53;38.40;18.60
480;DHT22;226;48.606;9.096;2022-08-21T15:14:26;38.00;17.70
480;DHT22;226;48.606;9.096;2022-08-21T15:16:55;38.20;15.80
480;DHT22;226;48.606;9.096;2022-08-21T15:19:23;38.10;13.00
480;DHT22;226;48.606;9.096;2022-08-21T15:34:23;37.00;19.00
480;DHT22;226;48.606;9.096;2022-08-21T15:36:53;37.00;17.30
480;DHT22;226;48.606;9.096;2022-08-21T15:39:23;36.80;18.60
480;DHT22;226;48.606;9.096;2022-08-21T15:41:57;37.20;14.80
480;DHT22;226;48.606;9.096;2022-08-21T15:44:38;37.40;15.90
480;DHT22;226;48.606;9.096;2022-08-21T15:49:41;36.20;1.00
480;DHT22;226;48.606;9.096;2022-08-21T15:52:12;35.70;1.00
480;DHT22;226;48.606;9.096;2022-08-21T15:54:40;34.50;1.00
480;DHT22;226;48.606;9.096;2022-08-21T15:57:09;33.50;1.00
480;DHT22;226;48.606;9.096;2022-08-21T15:59:41;32.50;1.00
480;DHT22;226;48.606;9.096;2022-08-21T16:02:13;31.70;1.00
480;DHT22;226;48.606;9.096;2022-08-21T16:04:42;30.80;1.00
480;DHT22;226;48.606;9.096;2022-08-21T16:07:11;30.00;1.00
480;DHT22;226;48.606;9.096;2022-08-21T16:09:39;29.30;1.00
480;DHT22;226;48.606;9.096;2022-08-21T16:12:08;28.90;1.00
480;DHT22;226;48.606;9.096;2022-08-21T16:14:39;28.60;1.00
480;DHT22;226;48.606;9.096;2022-08-21T16:17:07;28.20;1.00
480;DHT22;226;48.606;9.096;2022-08-21T16:19:36;28.00;1.00
480;DHT22;226;48.606;9.096;2022-08-21T16:22:05;27.80;1.00
480;DHT22;226;48.606;9.096;2022-08-21T16:24:33;27.60;1.00
480;DHT22;226;48.606;9.096;2022-08-21T16:27:03;27.50;1.00
480;DHT22;226;48.606;9.096;2022-08-21T16:29:36;27.30;1.00
480;DHT22;226;48.606;9.096;2022-08-21T16:32:07;27.20;1.00
480;DHT22;226;48.606;9.096;2022-08-21T16:34:35;27.20;1.00
480;DHT22;226;48.606;9.096;2022-08-21T16:37:06;27.10;1.00
480;DHT22;226;48.606;9.096;2022-08-21T16:39:34;27.00;1.00
480;DHT22;226;48.606;9.096;2022-08-21T16:42:03;26.90;1.00
480;DHT22;226;48.606;9.096;2022-08-21T16:44:32;26.80;1.00
480;DHT22;226;48.606;9.096;2022-08-21T16:47:03;26.70;1.00
480;DHT22;226;48.606;9.096;2022-08-21T16:49:32;26.70;1.00
480;DHT22;226;48.606;9.096;2022-08-21T16:52:00;26.50;1.00
480;DHT22;226;48.606;9.096;2022-08-21T16:54:28;26.40;1.00
480;DHT22;226;48.606;9.096;2022-08-21T16:56:57;26.30;1.00
480;DHT22;226;48.606;9.096;2022-08-21T16:59:26;26.30;1.00
480;DHT22;226;48.606;9.096;2022-08-21T17:01:54;26.20;1.00
480;DHT22;226;48.606;9.096;2022-08-21T17:04:22;26.10;1.00
480;DHT22;226;48.606;9.096;2022-08-21T17:06:53;26.10;1.00
480;DHT22;226;48.606;9.096;2022-08-21T17:09:21;26.10;1.80
480;DHT22;226;48.606;9.096;2022-08-21T17:11:49;26.00;1.00
480;DHT22;226;48.606;9.096;2022-08-21T17:14:18;26.00;1.00
480;DHT22;226;48.606;9.096;2022-08-21T17:16:49;25.90;1.00
480;DHT22;226;48.606;9.096;2022-08-21T17:19:18;25.80;1.00
480;DHT22;226;48.606;9.096;2022-08-21T17:21:46;25.80;1.00
480;DHT22;226;48.606;9.096;2022-08-21T17:24:16;25.70;1.00
480;DHT22;226;48.606;9.096;2022-08-21T17:26:44;25.60;1.00
480;DHT22;226;48.606;9.096;2022-08-21T17:29:13;25.50;1.00
480;DHT22;226;48.606;9.096;2022-08-21T17:31:43;25.50;1.00
480;DHT22;226;48.606;9.096;2022-08-21T17:34:13;25.40;1.00
480;DHT22;226;48.606;9.096;2022-08-21T17:36:41;25.30;2.00
480;DHT22;226;48.606;9.096;2022-08-21T17:39:09;25.20;1.50
480;DHT22;226;48.606;9.096;2022-08-21T17:41:44;25.10;1.10
480;DHT22;226;48.606;9.096;2022-08-21T17:44:14;25.10;1.80
480;DHT22;226;48.606;9.096;2022-08-21T17:46:44;24.90;1.50
480;DHT22;226;48.606;9.096;2022-08-21T17:49:12;24.80;1.90
480;DHT22;226;48.606;9.096;2022-08-21T17:51:41;24.70;4.80
480;DHT22;226;48.606;9.096;2022-08-21T17:54:09;24.40;10.10
480;DHT22;226;48.606;9.096;2022-08-21T17:56:40;23.90;13.40
480;DHT22;226;48.606;9.096;2022-08-21T17:59:10;23.30;14.40
480;DHT22;226;48.606;9.096;2022-08-21T18:01:41;22.80;15.30
480;DHT22;226;48.606;9.096;2022-08-21T18:04:11;22.50;15.90
480;DHT22;226;48.606;9.096;2022-08-21T18:06:40;22.30;16.90
480;DHT22;226;48.606;9.096;2022-08-21T18:09:09;22.00;17.90